Time;durP1;ratioP1;P1;durP2;ratioP2;P2;SDS_P1;SDS_P2;PMS_P1;PMS_P2;Temp;Humidity;BMP_temperature;BMP_pressure;BME280_temperature;BME280_humidity;BME280_pressure;Samples;Min_cycle;Max_cycle;Signal;HPM_P1;HPM_P2
2022/09/10 00:01:24;;;;;;;1.83;0.60;;;;;;;16.53;100.00;100043.44;8261089;28;20046;-51
2022/09/10 00:05:26;;;;;;;1.42;0.50;;;;;;;16.63;100.00;100049.44;8261133;28;20305;-52
2022/09/10 00:09:26;;;;;;;2.47;0.50;;;;;;;16.69;100.00;100054.13;8261090;28;20125;-50
2022/09/10 00:13:27;;;;;;;3.65;0.60;;;;;;;16.76;100.00;100057.78;8257081;28;20035;-48
2022/09/10 00:17:27;;;;;;;2.90;0.77;;;;;;;16.75;100.00;100058.84;8254420;28;20026;-49
2022/09/10 00:21:28;;;;;;;2.70;0.80;;;;;;;16.75;100.00;100056.09;8265592;28;20041;-47
2022/09/10 00:25:31;;;;;;;2.70;0.65;;;;;;;16.65;100.00;100052.84;8287673;28;20050;-48
2022/09/10 00:29:31;;;;;;;2.72;0.57;;;;;;;16.61;100.00;100059.69;8291191;28;20057;-48
2022/09/10 00:33:32;;;;;;;2.58;0.57;;;;;;;16.57;100.00;100063.84;8293654;28;20057;-50
2022/09/10 00:37:32;;;;;;;3.60;0.77;;;;;;;16.53;100.00;100068.81;8291627;28;20742;-50
2022/09/10 00:41:35;;;;;;;3.95;0.65;;;;;;;16.63;100.00;100065.81;8283008;28;20073;-51
2022/09/10 00:45:35;;;;;;;5.15;0.80;;;;;;;16.73;100.00;100059.03;8293039;28;20040;-48
2022/09/10 00:49:40;;;;;;;4.40;0.70;;;;;;;16.69;100.00;100056.88;8293561;28;20045;-49
2022/09/10 00:53:42;;;;;;;3.15;0.73;;;;;;;16.68;100.00;100060.66;8293227;28;20026;-50
2022/09/10 00:57:46;;;;;;;6.18;1.40;;;;;;;16.60;100.00;100055.28;8293088;28;20042;-48
2022/09/10 01:01:48;;;;;;;1.40;0.70;;;;;;;16.56;100.00;100062.16;8292550;28;20386;-48
2022/09/10 01:05:50;;;;;;;1.95;0.90;;;;;;;16.62;100.00;100064.13;8288779;28;20041;-48
2022/09/10 01:09:50;;;;;;;2.08;0.60;;;;;;;16.68;100.00;100057.91;8289222;28;20488;-50
2022/09/10 01:14:16;;;;;;;3.95;0.70;;;;;;;16.66;100.00;100059.97;8291726;28;20447;-50
2022/09/10 01:18:38;;;;;;;3.88;1.00;;;;;;;16.79;100.00;100054.69;8259890;28;20034;-50
2022/09/10 01:23:16;;;;;;;6.60;1.05;;;;;;;16.91;100.00;100053.13;8259555;28;20542;-48
2022/09/10 01:27:38;;;;;;;3.05;0.65;;;;;;;16.85;100.00;100054.75;8291092;28;20422;-49
2022/09/10 01:31:49;;;;;;;3.53;1.05;;;;;;;16.80;100.00;100050.94;8292740;28;20041;-48
2022/09/10 01:35:58;;;;;;;5.32;0.73;;;;;;;16.77;100.00;100045.84;8292830;28;20049;-48
2022/09/10 01:40:02;;;;;;;5.15;0.90;;;;;;;16.92;100.00;100061.16;8290534;28;20041;-50
2022/09/10 01:44:09;;;;;;;5.23;1.03;;;;;;;17.09;100.00;100050.84;8292073;28;20510;-48
2022/09/10 01:48:48;;;;;;;2.38;0.77;;;;;;;17.07;100.00;100053.75;8292220;28;20476;-49
2022/09/10 01:53:18;;;;;;;3.08;0.93;;;;;;;17.13;100.00;100057.59;8291520;28;20128;-49
2022/09/10 01:57:51;;;;;;;8.10;1.15;;;;;;;17.19;100.00;100044.00;8281255;28;20073;-48
2022/09/10 02:02:02;;;;;;;3.97;1.05;;;;;;;17.16;100.00;100049.00;8289444;28;20049;-48
2022/09/10 02:06:06;;;;;;;3.70;1.25;;;;;;;17.12;100.00;100053.19;8292289;28;20096;-48
2022/09/10 02:10:08;;;;;;;5.73;1.30;;;;;;;17.12;100.00;100050.44;8292301;28;20041;-48
2022/09/10 02:14:09;;;;;;;2.55;0.85;;;;;;;17.12;100.00;100050.44;8291603;28;20387;-49
2022/09/10 02:18:09;;;;;;;5.40;1.27;;;;;;;17.14;100.00;100045.66;8292240;28;20153;-48
2022/09/10 02:22:10;;;;;;;2.50;0.70;;;;;;;17.10;100.00;100044.31;8291608;28;20611;-48
2022/09/10 02:26:13;;;;;;;3.95;0.85;;;;;;;17.09;100.00;100045.38;8291066;28;20045;-48
2022/09/10 02:30:15;;;;;;;2.30;0.73;;;;;;;17.06;100.00;100041.16;8271942;28;20030;-47
2022/09/10 02:34:16;;;;;;;4.78;1.55;;;;;;;17.07;100.00;100047.44;8257473;28;20061;-47
2022/09/10 02:38:17;;;;;;;5.35;1.48;;;;;;;16.98;100.00;100043.13;8264900;28;20035;-47
2022/09/10 02:42:17;;;;;;;2.28;0.75;;;;;;;16.92;100.00;100038.44;8261935;28;20492;-48
2022/09/10 02:46:17;;;;;;;5.65;1.27;;;;;;;16.81;100.00;100031.59;8254121;28;20193;-49
2022/09/10 02:50:18;;;;;;;2.67;0.60;;;;;;;16.79;100.00;100041.03;8246266;28;20044;-47
2022/09/10 02:54:18;;;;;;;2.88;0.70;;;;;;;16.79;100.00;100038.28;8261928;28;20058;-47
2022/09/10 02:58:19;;;;;;;1.88;0.95;;;;;;;16.72;100.00;100043.69;8257792;28;20046;-47
2022/09/10 03:02:19;;;;;;;4.32;0.85;;;;;;;16.66;100.00;100032.69;8263914;28;20092;-47
2022/09/10 03:06:22;;;;;;;4.22;1.15;;;;;;;16.63;100.00;100035.78;8263579;28;20049;-50
2022/09/10 03:10:23;;;;;;;6.47;1.25;;;;;;;16.68;100.00;100036.06;8264226;28;20096;-48
2022/09/10 03:14:24;;;;;;;5.93;1.08;;;;;;;16.61;100.00;100029.66;8263622;28;20034;-47
2022/09/10 03:18:26;;;;;;;4.57;1.38;;;;;;;16.52;100.00;100030.81;8262316;28;20114;-46
2022/09/10 03:22:27;;;;;;;2.90;1.52;;;;;;;16.49;100.00;100036.66;8262360;28;20507;-47
2022/09/10 03:26:27;;;;;;;3.03;1.40;;;;;;;16.58;100.00;100040.97;8262830;28;20435;-47
2022/09/10 03:30:28;;;;;;;4.75;1.20;;;;;;;16.57;100.00;100045.59;8292169;28;20034;-47
2022/09/10 03:34:28;;;;;;;7.03;1.47;;;;;;;16.25;100.00;100039.66;8283640;28;20037;-47
2022/09/10 03:38:28;;;;;;;3.30;1.00;;;;;;;16.31;100.00;100042.47;8288922;28;20793;-50
2022/09/10 03:42:29;;;;;;;7.53;1.33;;;;;;;16.32;100.00;100043.31;8292549;28;20026;-47
2022/09/10 03:46:29;;;;;;;12.10;1.30;;;;;;;16.28;100.00;100047.47;8294525;28;20042;-47
2022/09/10 03:50:30;;;;;;;5.30;1.33;;;;;;;16.02;100.00;100038.91;8294852;28;20037;-47
2022/09/10 03:54:30;;;;;;;8.25;1.50;;;;;;;15.96;100.00;100032.31;8274019;28;20423;-46
2022/09/10 03:58:31;;;;;;;4.47;1.40;;;;;;;16.34;100.00;100049.41;8255997;28;20039;-46
2022/09/10 04:02:31;;;;;;;3.33;1.10;;;;;;;16.69;100.00;100043.22;8261172;28;20778;-47
2022/09/10 04:06:32;;;;;;;4.55;1.08;;;;;;;16.84;100.00;100049.50;8261890;28;20038;-48
2022/09/10 04:10:32;;;;;;;4.15;1.48;;;;;;;16.97;100.00;100041.44;8260697;28;20125;-47
2022/09/10 04:14:33;;;;;;;4.03;1.10;;;;;;;17.05;100.00;100044.06;8249639;28;20038;-47
2022/09/10 04:18:33;;;;;;;4.60;1.15;;;;;;;17.14;100.00;100048.38;8257064;28;20034;-47
2022/09/10 04:22:34;;;;;;;3.10;1.08;;;;;;;17.16;100.00;100046.28;8259684;28;20038;-48
2022/09/10 04:26:34;;;;;;;7.25;1.73;;;;;;;17.14;100.00;100051.09;8255916;28;20038;-46
2022/09/10 04:30:35;;;;;;;8.10;1.60;;;;;;;17.10;100.00;100052.50;8258098;28;20031;-47
2022/09/10 04:34:35;;;;;;;6.80;1.50;;;;;;;17.10;100.00;100063.44;8255315;28;20042;-48
2022/09/10 04:38:39;;;;;;;3.80;1.20;;;;;;;17.09;100.00;100050.84;8259967;28;20153;-50
2022/09/10 04:42:39;;;;;;;3.47;1.27;;;;;;;17.06;100.00;100059.41;8260456;28;20113;-49
2022/09/10 04:46:42;;;;;;;4.20;1.30;;;;;;;17.04;100.00;100056.00;8259507;28;20046;-47
2022/09/10 04:50:43;;;;;;;5.13;1.15;;;;;;;16.96;100.00;100056.16;8255993;28;20045;-47
2022/09/10 04:54:43;;;;;;;5.07;1.45;;;;;;;16.94;100.00;100055.50;8249863;28;20066;-48
2022/09/10 04:58:43;;;;;;;5.27;1.63;;;;;;;16.95;100.00;100059.91;8245597;28;20108;-50
2022/09/10 05:02:45;;;;;;;7.13;1.20;;;;;;;16.85;100.00;100053.91;8260452;28;21067;-47
2022/09/10 05:06:49;;;;;;;5.10;1.67;;;;;;;16.74;100.00;100048.97;8260454;28;20278;-48
2022/09/10 05:10:49;;;;;;;6.22;1.80;;;;;;;16.65;100.00;100044.66;8253669;28;20038;-47
2022/09/10 05:14:49;;;;;;;5.00;1.83;;;;;;;16.66;100.00;100049.06;8250013;28;20039;-49
2022/09/10 05:18:50;;;;;;;7.27;1.83;;;;;;;16.70;100.00;100062.13;8256485;28;20116;-47
2022/09/10 05:22:50;;;;;;;5.18;1.55;;;;;;;16.69;100.00;100059.59;8259911;28;20647;-47
2022/09/10 05:26:51;;;;;;;4.35;1.48;;;;;;;16.71;100.00;100057.53;8259413;28;20092;-48
2022/09/10 05:30:52;;;;;;;4.78;1.65;;;;;;;16.78;100.00;100062.03;8276501;28;20473;-47
2022/09/10 05:34:52;;;;;;;4.60;1.30;;;;;;;16.80;100.00;100062.69;8281200;28;20165;-47
2022/09/10 05:38:54;;;;;;;3.22;1.38;;;;;;;16.88;100.00;100075.38;8275741;28;20044;-47
2022/09/10 05:42:55;;;;;;;3.70;1.45;;;;;;;16.92;100.00;100076.66;8286350;28;20084;-47
2022/09/10 05:46:55;;;;;;;7.68;1.70;;;;;;;16.94;100.00;100078.19;8287708;28;20046;-47
2022/09/10 05:50:56;;;;;;;4.00;1.30;;;;;;;17.01;100.00;100076.38;8291409;28;20034;-46
2022/09/10 05:54:57;;;;;;;3.72;1.15;;;;;;;16.99;100.00;100072.16;8291317;28;20029;-51
2022/09/10 05:58:58;;;;;;;3.83;1.10;;;;;;;17.06;100.00;100073.94;8286602;28;20046;-47
2022/09/10 06:02:59;;;;;;;3.85;1.80;;;;;;;17.12;100.00;100085.97;8280091;28;20522;-47
2022/09/10 06:07:00;;;;;;;4.63;1.40;;;;;;;17.08;100.00;100092.84;8269309;28;20147;-48
2022/09/10 06:11:04;;;;;;;4.25;1.00;;;;;;;17.12;100.00;100099.63;8280300;28;20050;-49
2022/09/10 06:15:06;;;;;;;10.68;1.63;;;;;;;17.41;100.00;100104.97;8284337;28;20041;-47
2022/09/10 06:19:07;;;;;;;3.88;1.05;;;;;;;17.52;100.00;100094.41;8295554;28;20522;-47
2022/09/10 06:23:07;;;;;;;2.28;0.85;;;;;;;17.62;100.00;100104.19;8290801;28;20376;-49
2022/09/10 06:27:08;;;;;;;4.38;0.90;;;;;;;17.60;100.00;100113.41;8277879;28;20046;-47
2022/09/10 06:31:13;;;;;;;3.55;1.00;;;;;;;17.63;100.00;100114.91;8296644;28;20046;-47
2022/09/10 06:35:13;;;;;;;;;;;;;;;17.72;100.00;100116.50;8286424;28;20124;-48
2022/09/10 06:39:14;;;;;;;3.10;0.80;;;;;;;17.73;100.00;100120.03;8292364;28;19922;-47
2022/09/10 06:43:16;;;;;;;4.15;0.90;;;;;;;17.78;100.00;100118.41;8286346;28;20877;-47
2022/09/10 06:47:16;;;;;;;1.77;0.68;;;;;;;17.85;100.00;100124.81;8276981;28;20038;-47
2022/09/10 06:51:17;;;;;;;4.60;0.80;;;;;;;17.96;100.00;100121.50;8293167;28;20088;-47
2022/09/10 06:55:17;;;;;;;4.13;1.00;;;;;;;18.11;99.53;100130.47;8280833;28;20106;-47
2022/09/10 06:59:17;;;;;;;4.10;1.10;;;;;;;18.24;97.52;100127.84;8279098;28;20268;-47
2022/09/10 07:03:19;;;;;;;4.10;1.47;;;;;;;18.18;100.00;100136.88;8277047;28;20541;-48
2022/09/10 07:07:20;;;;;;;2.40;1.13;;;;;;;18.00;100.00;100128.31;8283307;28;20323;-47
2022/09/10 07:11:22;;;;;;;2.55;1.38;;;;;;;17.93;100.00;100142.97;8288000;28;20038;-47
2022/09/10 07:15:22;;;;;;;3.20;1.40;;;;;;;17.86;100.00;100137.41;8294801;28;20529;-47
2022/09/10 07:19:23;;;;;;;4.90;1.52;;;;;;;17.88;100.00;100140.81;8294100;28;20407;-50
2022/09/10 07:23:23;;;;;;;5.78;1.23;;;;;;;17.91;100.00;100134.97;8295581;28;20041;-47
2022/09/10 07:27:24;;;;;;;5.82;1.58;;;;;;;17.96;100.00;100142.56;8295334;28;20052;-48
2022/09/10 07:31:30;;;;;;;5.03;1.88;;;;;;;17.99;100.00;100140.28;8294125;28;20096;-47
2022/09/10 07:35:35;;;;;;;7.82;2.20;;;;;;;18.04;100.00;100143.28;8270200;28;20514;-47
2022/09/10 07:39:36;;;;;;;3.03;1.50;;;;;;;18.09;100.00;100146.28;8261995;28;20038;-47
2022/09/10 07:43:38;;;;;;;5.10;1.50;;;;;;;18.09;100.00;100149.00;8261510;28;20030;-48
2022/09/10 07:47:39;;;;;;;4.97;1.95;;;;;;;18.08;100.00;100141.81;8260462;28;20122;-50
2022/09/10 07:51:40;;;;;;;9.15;2.33;;;;;;;18.10;100.00;100147.94;8262127;28;20037;-47
2022/09/10 07:55:40;;;;;;;3.70;1.60;;;;;;;18.22;100.00;100154.56;8262094;28;20514;-48
2022/09/10 07:59:41;;;;;;;5.30;1.85;;;;;;;18.37;100.00;100147.16;8261547;28;20278;-47
2022/09/10 08:03:41;;;;;;;6.55;1.75;;;;;;;18.61;99.61;100149.44;8261489;28;20570;-47
2022/09/10 08:07:41;;;;;;;6.43;1.75;;;;;;;18.72;98.88;100162.53;8261921;28;20045;-47
2022/09/10 08:11:42;;;;;;;4.53;1.88;;;;;;;18.49;100.00;100152.91;8261600;28;20042;-49
2022/09/10 08:15:43;;;;;;;4.53;2.33;;;;;;;18.28;100.00;100162.00;8261541;28;20039;-47
2022/09/10 08:19:43;;;;;;;4.07;1.95;;;;;;;18.16;100.00;100165.47;8261410;28;20038;-48
2022/09/10 08:23:53;;;;;;;7.20;2.08;;;;;;;18.15;100.00;100166.50;8261442;28;20049;-47
2022/09/10 08:27:53;;;;;;;7.50;2.30;;;;;;;18.20;100.00;100178.56;8256447;28;20500;-48
2022/09/10 08:31:54;;;;;;;4.70;2.42;;;;;;;18.28;100.00;100169.34;8258690;28;20405;-47
2022/09/10 08:35:56;;;;;;;6.00;2.65;;;;;;;18.31;100.00;100175.28;8258436;28;20049;-47
2022/09/10 08:39:57;;;;;;;5.47;2.40;;;;;;;18.38;100.00;100170.72;8241950;28;20037;-48
2022/09/10 08:44:04;;;;;;;3.13;2.40;;;;;;;18.44;100.00;100167.19;8286198;28;20077;-51
2022/09/10 08:48:18;;;;;;;4.93;2.72;;;;;;;18.55;100.00;100166.66;8305865;28;20096;-48
2022/09/10 08:52:32;;;;;;;5.83;2.33;;;;;;;18.63;100.00;100171.97;8291256;28;20196;-48
2022/09/10 08:56:33;;;;;;;8.77;2.72;;;;;;;18.79;100.00;100163.41;8291317;28;20033;-48
2022/09/10 09:00:38;;;;;;;5.15;2.65;;;;;;;18.79;100.00;100174.38;8291460;28;20084;-47
2022/09/10 09:04:42;;;;;;;;;;;;;;;18.81;100.00;100174.16;8285808;28;20034;-50
2022/09/10 09:08:47;;;;;;;6.20;2.70;;;;;;;18.77;100.00;100171.00;8277992;28;19918;-48
2022/09/10 09:17:50;;;;;;;6.80;3.25;;;;;;;18.81;99.64;100175.03;8394356;27;20832;-49
2022/09/10 09:21:53;;;;;;;6.53;3.30;;;;;;;18.78;100.00;100178.16;8352461;28;20418;-47
2022/09/10 09:26:02;;;;;;;5.68;3.50;;;;;;;18.80;100.00;100176.09;8352054;28;20033;-48
2022/09/10 09:34:43;;;;;;;9.82;3.17;;;;;;;18.80;99.39;100176.09;8350268;27;20381;-52
2022/09/10 09:38:49;;;;;;;9.60;2.58;;;;;;;18.90;98.15;100175.69;8346076;28;20049;-50
2022/09/10 09:43:14;;;;;;;9.10;3.55;;;;;;;18.92;96.31;100185.44;8319294;28;20033;-54
2022/09/10 09:47:15;;;;;;;7.00;2.92;;;;;;;19.03;96.30;100176.63;8317626;28;20095;-53
2022/09/10 09:51:19;;;;;;;10.63;2.80;;;;;;;19.21;94.12;100184.28;8317041;28;20564;-53
2022/09/10 09:55:28;;;;;;;7.22;2.55;;;;;;;19.32;93.37;100176.38;8318047;28;20044;-53
2022/09/10 09:59:33;;;;;;;6.65;2.17;;;;;;;19.39;93.16;100179.97;8334276;28;20033;-53
2022/09/10 10:03:47;;;;;;;7.38;2.47;;;;;;;19.51;90.57;100180.22;8350326;28;20059;-52
2022/09/10 10:07:47;;;;;;;7.43;2.53;;;;;;;19.57;90.43;100175.84;8349997;28;20040;-53
2022/09/10 10:11:52;;;;;;;4.70;2.65;;;;;;;19.65;91.21;100176.47;8350074;28;20042;-50
2022/09/10 10:15:53;;;;;;;6.97;2.10;;;;;;;19.65;90.17;100181.09;8348134;28;20069;-50
2022/09/10 10:20:15;;;;;;;6.65;2.03;;;;;;;19.66;89.66;100182.78;8322952;28;20037;-52
2022/09/10 10:24:32;;;;;;;5.75;1.90;;;;;;;19.65;90.42;100172.88;8317791;28;20033;-50
2022/09/10 10:28:34;;;;;;;6.78;2.30;;;;;;;19.77;89.78;100179.44;8326050;28;20512;-51
2022/09/10 10:32:55;;;;;;;3.92;1.98;;;;;;;19.88;88.88;100184.34;8349126;28;20091;-50
2022/09/10 10:41:38;;;;;;;5.55;1.77;;;;;;;20.06;88.13;100173.59;8408175;27;20985;-51
2022/09/10 10:45:54;;;;;;;4.93;2.42;;;;;;;19.85;87.11;100168.28;8417571;28;20060;-52
2022/09/10 10:54:48;;;;;;;9.25;2.45;;;;;;;19.64;87.99;100168.47;8294114;28;20428;-53
2022/09/10 10:59:05;;;;;;;4.68;2.33;;;;;;;19.75;87.56;100178.81;8285433;28;20406;-53
2022/09/10 11:03:30;;;;;;;6.85;2.15;;;;;;;19.85;88.04;100171.03;8285804;28;20150;-51
2022/09/10 11:07:38;;;;;;;6.13;2.42;;;;;;;19.74;88.31;100169.75;8281006;28;20042;-50
2022/09/10 11:11:55;;;;;;;6.07;2.35;;;;;;;19.70;88.23;100173.13;8285819;28;20354;-53
2022/09/10 11:16:04;;;;;;;5.38;2.33;;;;;;;19.72;88.25;100165.50;8285708;28;20049;-53
2022/09/10 11:20:17;;;;;;;5.18;2.80;;;;;;;19.73;88.11;100167.22;8284164;28;20038;-53
2022/09/10 11:24:33;;;;;;;4.47;2.20;;;;;;;19.74;89.15;100168.91;8284693;28;20491;-53
2022/09/10 11:28:42;;;;;;;4.30;2.78;;;;;;;19.70;89.29;100179.44;8284470;28;20081;-51
2022/09/10 11:32:59;;;;;;;7.32;3.47;;;;;;;19.75;89.93;100176.06;8284677;28;20049;-54
2022/09/10 11:37:40;;;;;;;6.30;2.55;;;;;;;19.79;88.44;100171.88;8278694;28;20042;-49
2022/09/10 11:41:42;;;;;;;8.48;3.90;;;;;;;19.85;89.38;100166.38;8274677;28;20042;-51
2022/09/10 11:45:51;;;;;;;9.63;3.90;;;;;;;19.87;88.47;100163.41;8284496;28;20074;-50
2022/09/10 11:50:14;;;;;;;6.20;4.28;;;;;;;19.89;88.34;100173.16;8284506;28;20825;-53
2022/09/10 11:54:22;;;;;;;4.80;3.97;;;;;;;20.02;88.98;100172.31;8284245;28;20460;-53
2022/09/10 11:58:48;;;;;;;5.72;4.38;;;;;;;19.94;88.70;100180.75;8284528;28;20599;-51
2022/09/10 12:11:37;;;;;;;9.80;5.68;;;;;;;19.63;95.24;100166.75;8286282;28;20500;-53
2022/09/10 12:15:38;;;;;;;12.50;5.90;;;;;;;20.00;91.78;100163.47;8285331;28;20398;-50
2022/09/10 12:19:45;;;;;;;9.20;5.45;;;;;;;20.50;89.22;100160.94;8284964;28;20042;-53
2022/09/10 12:23:46;;;;;;;13.05;4.60;;;;;;;20.80;86.27;100156.66;8286069;28;20057;-53
2022/09/10 12:36:36;;;;;;;10.27;7.53;;;;;;;20.08;95.11;100171.47;8395579;27;20390;-51
2022/09/10 12:44:49;;;;;;;14.52;11.13;;;;;;;18.94;100.00;100180.56;8356784;28;20347;-50
2022/09/10 12:49:05;;;;;;;15.93;12.45;;;;;;;18.68;100.00;100191.38;8351677;28;20148;-51
2022/09/10 12:53:30;;;;;;;28.40;15.38;;;;;;;18.45;100.00;100185.31;8350040;28;20429;-50
2022/09/10 12:57:59;;;;;;;22.60;15.40;;;;;;;18.23;100.00;100171.81;8349992;28;20037;-50
2022/09/10 13:02:00;;;;;;;26.88;17.90;;;;;;;18.15;100.00;100175.56;8342904;28;20044;-54
2022/09/10 13:06:03;;;;;;;29.85;20.23;;;;;;;18.14;100.00;100162.91;8350102;28;20030;-54
2022/09/10 13:10:15;;;;;;;25.87;19.50;;;;;;;18.13;100.00;100163.97;8351103;28;20041;-52
2022/09/10 13:14:22;;;;;;;24.40;17.65;;;;;;;18.24;100.00;100168.88;8345042;28;20033;-54
2022/09/10 13:18:27;;;;;;;24.45;16.98;;;;;;;18.47;100.00;100164.06;8350491;28;20056;-51
2022/09/10 13:22:30;;;;;;;22.42;16.40;;;;;;;18.67;100.00;100170.50;8349669;28;20064;-51
2022/09/10 13:26:46;;;;;;;20.30;15.52;;;;;;;19.02;100.00;100169.47;8349514;28;20115;-51
2022/09/10 13:30:47;;;;;;;16.65;12.23;;;;;;;19.15;100.00;100169.50;8348391;28;20479;-52
2022/09/10 13:35:18;;;;;;;20.50;12.00;;;;;;;19.18;100.00;100169.09;8350431;28;20037;-54
2022/09/10 13:48:16;;;;;;;13.18;8.77;;;;;;;20.23;99.27;100164.75;8335977;27;20366;-50
2022/09/10 13:52:19;;;;;;;;;;;;;;;20.43;98.86;100170.25;8351027;28;20461;-48
2022/09/10 13:56:24;;;;;;;12.40;8.27;;;;;;;20.45;99.21;100179.09;8350894;28;20361;-50
2022/09/10 14:00:26;;;;;;;;;;;;;;;20.60;97.55;100175.09;8313957;28;20039;-48
2022/09/10 14:04:34;;;;;;;10.20;7.97;;;;;;;20.55;96.27;100179.50;8312307;28;19946;-52
2022/09/10 14:08:40;;;;;;;14.35;8.48;;;;;;;20.44;98.58;100169.19;8313059;28;20046;-50
2022/09/10 14:12:41;;;;;;;11.43;7.75;;;;;;;20.16;99.45;100179.53;8314156;28;20038;-48
2022/09/10 14:16:48;;;;;;;8.15;6.88;;;;;;;19.93;100.00;100179.06;8312161;28;20041;-48
2022/09/10 14:20:49;;;;;;;10.30;6.97;;;;;;;19.81;100.00;100180.72;8318240;28;20061;-48
2022/09/10 14:24:53;;;;;;;11.30;7.10;;;;;;;20.17;100.00;100181.22;8317808;28;20072;-49
2022/09/10 14:28:56;;;;;;;;;;;;;;;20.80;100.00;100186.06;8328913;28;20033;-48
2022/09/10 14:33:21;;;;;;;17.60;8.07;;;;;;;20.84;96.85;100190.03;8348055;28;20356;-48
2022/09/10 14:37:35;;;;;;;12.30;7.03;;;;;;;20.55;97.18;100187.75;8349216;28;20036;-51
2022/09/10 14:41:36;;;;;;;;;;;;;;;20.43;99.32;100194.97;8324028;28;20084;-48
2022/09/10 14:45:39;;;;;;;13.17;7.17;;;;;;;20.20;98.32;100176.16;8316225;28;19931;-52
2022/09/10 14:49:40;;;;;;;10.75;7.85;;;;;;;20.15;100.00;100194.31;8314315;28;20494;-48
2022/09/10 14:53:42;;;;;;;14.05;9.05;;;;;;;19.98;100.00;100198.50;8311246;28;20080;-48
2022/09/10 14:57:43;;;;;;;10.02;7.22;;;;;;;19.62;100.00;100197.97;8330890;28;20037;-48
2022/09/10 15:01:47;;;;;;;8.73;6.22;;;;;;;19.62;100.00;100192.50;8323784;28;20087;-48
2022/09/10 15:05:47;;;;;;;9.38;5.10;;;;;;;20.13;100.00;100179.97;8318652;28;20045;-47
2022/09/10 15:09:47;;;;;;;7.88;5.28;;;;;;;20.46;99.71;100186.31;8326119;28;20048;-47
2022/09/10 15:13:49;;;;;;;9.95;4.53;;;;;;;20.69;97.70;100183.94;8305920;28;20077;-49
2022/09/10 15:17:50;;;;;;;6.95;4.60;;;;;;;20.71;96.89;100179.09;8292428;28;20392;-48
2022/09/10 15:21:50;;;;;;;9.05;4.22;;;;;;;21.00;96.16;100189.63;8293211;28;20322;-49
2022/09/10 15:25:53;;;;;;;6.55;3.25;;;;;;;20.91;94.43;100177.97;8293357;28;20037;-49
2022/09/10 15:29:54;;;;;;;4.90;1.98;;;;;;;20.74;90.17;100184.16;8299285;28;20542;-48
2022/09/10 15:33:55;;;;;;;3.90;1.70;;;;;;;20.67;89.81;100177.81;8292714;28;20399;-48
2022/09/10 15:37:56;;;;;;;3.10;1.48;;;;;;;20.52;88.38;100185.47;8296592;28;20029;-49
2022/09/10 15:41:58;;;;;;;2.90;1.30;;;;;;;20.45;89.21;100196.44;8294933;28;20411;-48
2022/09/10 15:46:00;;;;;;;4.32;1.70;;;;;;;20.52;89.15;100201.94;8294161;28;20042;-49
2022/09/10 15:50:02;;;;;;;5.45;1.90;;;;;;;20.43;91.43;100205.97;8293985;28;20423;-48
2022/09/10 15:54:05;;;;;;;7.45;2.15;;;;;;;20.01;96.81;100209.06;8293347;28;20042;-48
2022/09/10 15:58:06;;;;;;;3.80;1.88;;;;;;;19.60;100.00;100208.34;8299526;28;20037;-48
2022/09/10 16:02:11;;;;;;;5.70;2.92;;;;;;;19.31;100.00;100207.56;8324834;28;20037;-50
2022/09/10 16:06:13;;;;;;;6.72;3.22;;;;;;;19.09;100.00;100211.44;8324297;28;20033;-48
2022/09/10 16:10:14;;;;;;;6.03;3.15;;;;;;;19.04;100.00;100213.94;8323492;28;20041;-49
2022/09/10 16:14:17;;;;;;;8.38;3.50;;;;;;;18.99;100.00;100213.69;8324514;28;20071;-51
2022/09/10 16:18:18;;;;;;;8.52;2.80;;;;;;;19.07;100.00;100212.69;8309924;28;20061;-48
2022/09/10 16:22:18;;;;;;;7.75;3.10;;;;;;;19.15;100.00;100217.97;8292995;28;20030;-49
2022/09/10 16:26:22;;;;;;;6.72;3.38;;;;;;;19.18;100.00;100217.59;8292447;28;20473;-47
2022/09/10 16:30:23;;;;;;;5.63;2.55;;;;;;;19.22;100.00;100229.84;8311825;28;20473;-52
2022/09/10 16:34:23;;;;;;;7.38;3.00;;;;;;;19.19;100.00;100225.59;8322429;28;20045;-48
2022/09/10 16:38:24;;;;;;;10.43;2.75;;;;;;;19.18;100.00;100221.19;8322856;28;20102;-51
2022/09/10 16:42:26;;;;;;;7.47;3.00;;;;;;;19.17;100.00;100222.25;8324603;28;20552;-48
2022/09/10 16:46:26;;;;;;;6.50;2.78;;;;;;;19.19;100.00;100217.38;8317864;28;20056;-49
2022/09/10 16:50:27;;;;;;;7.00;3.10;;;;;;;19.19;100.00;100217.38;8292214;28;20042;-48
2022/09/10 16:54:30;;;;;;;5.15;2.60;;;;;;;19.19;100.00;100220.13;8292911;28;20030;-48
2022/09/10 16:58:31;;;;;;;6.72;2.60;;;;;;;19.19;100.00;100217.38;8302953;28;20042;-47
2022/09/10 17:02:34;;;;;;;7.97;3.03;;;;;;;19.18;100.00;100229.41;8323904;28;20513;-48
2022/09/10 17:06:35;;;;;;;6.28;3.13;;;;;;;19.19;100.00;100236.56;8325233;28;20112;-48
2022/09/10 17:10:35;;;;;;;4.15;3.05;;;;;;;19.18;100.00;100251.34;8323541;28;20049;-48
2022/09/10 17:14:38;;;;;;;4.53;2.83;;;;;;;19.18;100.00;100254.06;8325048;28;20041;-48
2022/09/10 17:18:38;;;;;;;4.28;2.60;;;;;;;19.13;100.00;100253.00;8307369;28;20277;-49
2022/09/10 17:22:39;;;;;;;5.40;2.97;;;;;;;19.12;100.00;100262.28;8292662;28;20040;-49
2022/09/10 17:26:40;;;;;;;3.92;2.80;;;;;;;19.05;100.00;100267.69;8292069;28;20038;-50
2022/09/10 17:30:41;;;;;;;5.95;2.88;;;;;;;19.04;100.00;100270.66;8315238;28;20037;-48
2022/09/10 17:34:41;;;;;;;8.15;3.25;;;;;;;18.97;100.00;100276.06;8324062;28;20116;-51
2022/09/10 17:38:42;;;;;;;5.28;2.90;;;;;;;18.96;100.00;100279.00;8321268;28;20402;-48
2022/09/10 17:42:44;;;;;;;8.02;3.30;;;;;;;18.93;100.00;100285.75;8292735;28;20030;-48
2022/09/10 17:46:45;;;;;;;5.75;2.90;;;;;;;18.90;100.00;100294.38;8285980;28;20427;-48
2022/09/10 17:50:47;;;;;;;4.28;3.03;;;;;;;18.93;100.00;100306.81;8291209;28;20065;-49
2022/09/10 17:54:48;;;;;;;8.05;3.40;;;;;;;18.93;100.00;100307.66;8292411;28;20038;-48
2022/09/10 17:58:49;;;;;;;5.95;3.05;;;;;;;18.90;100.00;100310.81;8302878;28;20092;-48
2022/09/10 18:02:50;;;;;;;5.18;3.40;;;;;;;18.88;100.00;100321.09;8323632;28;20397;-48
2022/09/10 18:06:50;;;;;;;6.25;3.25;;;;;;;18.82;100.00;100332.84;8323931;28;20052;-51
2022/09/10 18:11:00;;;;;;;6.22;3.88;;;;;;;18.79;100.00;100344.19;8323849;28;20103;-48
2022/09/10 18:15:01;;;;;;;7.25;4.13;;;;;;;18.79;100.00;100343.38;8306625;28;20113;-48
2022/09/10 18:19:06;;;;;;;8.15;3.90;;;;;;;18.75;100.00;100348.38;8318185;28;20041;-49
2022/09/10 18:23:07;;;;;;;6.35;4.22;;;;;;;18.70;100.00;100361.00;8292266;28;20088;-48
2022/09/10 18:27:07;;;;;;;8.50;4.95;;;;;;;18.62;100.00;100359.22;8292077;28;20038;-47
2022/09/10 18:31:08;;;;;;;10.17;4.70;;;;;;;18.60;100.00;100372.25;8323536;28;20490;-51
2022/09/10 18:35:09;;;;;;;8.90;5.35;;;;;;;18.53;100.00;100376.84;8329257;28;20284;-48
2022/09/10 18:39:10;;;;;;;10.75;6.45;;;;;;;18.45;100.00;100387.91;8322014;28;20512;-48
2022/09/10 18:43:12;;;;;;;10.93;6.40;;;;;;;18.30;100.00;100395.28;8295335;28;20487;-48
2022/09/10 18:47:12;;;;;;;11.52;6.78;;;;;;;18.23;100.00;100402.56;8284011;28;20038;-50
2022/09/10 18:51:15;;;;;;;7.97;6.72;;;;;;;18.18;100.00;100413.25;8296566;28;20038;-51
2022/09/10 18:55:16;;;;;;;9.52;6.75;;;;;;;18.17;100.00;100413.47;8297382;28;20053;-50
2022/09/10 18:59:19;;;;;;;13.57;8.10;;;;;;;18.08;100.00;100415.44;8310580;28;20207;-51
2022/09/10 19:03:20;;;;;;;9.32;8.27;;;;;;;18.01;100.00;100419.97;8328722;28;20456;-48
2022/09/10 19:07:20;;;;;;;12.18;8.35;;;;;;;17.98;100.00;100428.56;8328391;28;20052;-50
2022/09/10 19:11:23;;;;;;;14.43;9.43;;;;;;;17.94;100.00;100427.25;8303418;28;20046;-47
2022/09/10 19:15:25;;;;;;;15.05;8.75;;;;;;;17.91;100.00;100435.84;8295261;28;20073;-51
2022/09/10 19:19:28;;;;;;;20.60;9.65;;;;;;;17.95;100.00;100441.75;8296536;28;20038;-48
2022/09/10 19:23:31;;;;;;;17.73;9.38;;;;;;;18.01;100.00;100451.94;8296414;28;20120;-48
2022/09/10 19:27:33;;;;;;;13.45;9.32;;;;;;;18.04;100.00;100457.91;8298116;28;20041;-51
2022/09/10 19:31:34;;;;;;;14.88;9.88;;;;;;;18.09;100.00;100466.41;8327235;28;20060;-50
2022/09/10 19:35:35;;;;;;;12.02;9.02;;;;;;;18.03;100.00;100472.63;8327364;28;20029;-48